• Join FlightAware (Why Join?)
  • Login
  • US Flag 
09:17PM EDT


 

Airport Tracker/Info


-or-


 

Live Flight TrackerFlight Track Log ✈ AWE3417 ✈ 02-May-2013 ✈ KDCA - KCMH

Flight Track Log - Related Links

Times and Time Zones

All times are in EDT time to prevent confusion due to time zone crossing. See the AWE3417 flight status page for this flight to view local times or setup timezone preferences in your user account.

Time Position Orientation Groundspeed Altitude Reporting Facility
EDT Latitude Longitude Course Direction KTS MPH feet Rate Location/Type
07:42PM 38.8333 -77.0333 270° West 154 177 1,200  Level Potomac TRACON
07:43PM 38.7833 -77.0333 180° South 211 243 2,500 1,980 Climbing Potomac TRACON
07:44PM 38.9167 -77.3814 270° West  Level FlightAware Approximate
07:44PM 38.7500 -77.1167 243° Southwest 286 329 5,000  Level Potomac TRACON
07:45PM 38.9333 -77.5004 270° West  Level FlightAware Approximate
07:45PM 38.7536 -77.2661 272° West 296 341 10,100  Level Washington Center
07:46PM 38.9333 -77.6257 270° West  Level FlightAware Approximate
07:46PM 38.7939 -77.3681 297° West 291 335 12,400  Level Washington Center
07:47PM 38.9333 -77.7509 270° West  Level FlightAware Approximate
07:47PM 38.8361 -77.4786 296° West 321 369 15,000  Level Washington Center
07:48PM 38.8694 -77.6100 288° West 355 409 17,000 960 Climbing Washington Center
07:50PM 38.8861 -77.7197 281° West 355 409 17,000 960 Level Washington Center
07:50PM 38.9067 -77.8564 281° West 355 409 19,000 1,920 Climbing Washington Center
07:51PM 38.9250 -77.9878 280° West 360 414 20,900 1,920 Climbing Washington Center
07:52PM 38.9453 -78.1219 281° West 373 429 22,900 1,860 Climbing Washington Center
07:54PM 38.9608 -78.2639 278° West 390 449 24,700 1,860 Climbing Washington Center
07:55PM 38.9703 -78.4058 275° West 397 457 26,700 1,620 Climbing Washington Center
07:55PM 38.9814 -78.5503 276° West 407 468 28,000 1,320 Climbing Washington Center
07:56PM 38.9900 -78.6950 274° West 407 468 29,300 600 Climbing Washington Center
07:57PM 39.0006 -78.8503 275° West 425 489 29,300 -480 Level Washington Center
07:59PM 39.0111 -78.9978 275° West 425 489 28,400 -660 Descending Washington Center
08:00PM 39.0214 -79.1453 275° West 425 489 28,000 -240 Descending Washington Center
08:01PM 39.0314 -79.2953 275° West 425 489 28,000  Level Washington Center
08:01PM 39.0414 -79.4428 275° West 425 489 28,000  Level Washington Center
08:02PM 39.0517 -79.5769 276° West 425 489 28,000  Level Washington Center
08:04PM 39.0592 -79.7272 274° West 425 489 28,000  Level Washington Center
08:05PM 39.0681 -79.9639 273° West 415 478 28,000  Level Indianapolis Center
08:06PM 39.0761 -80.1081 274° West 418 481 28,000  Level Indianapolis Center
08:07PM 39.0872 -80.2864 275° West 419 482 28,000  Level Indianapolis Center
08:08PM 39.0939 -80.4344 273° West 415 478 28,000  Level Indianapolis Center
08:09PM 39.1031 -80.5842 275° West 419 482 28,000  Level Indianapolis Center
08:10PM 39.1103 -80.7297 274° West 410 472 28,000 -1,140 Level Indianapolis Center
08:11PM 39.1192 -80.8772 274° West 414 476 25,700 -1,980 Descending Indianapolis Center
08:12PM 39.1256 -81.0189 273° West 402 463 24,000 -840 Descending Indianapolis Center
08:13PM 39.1525 -81.1528 285° West 403 464 24,000  Level Indianapolis Center
08:14PM 39.2083 -81.3056 295° West 395 455 24,000 -480 Level Indianapolis Center
08:15PM 39.2564 -81.4347 296° West 400 460 23,100 -1,320 Descending Indianapolis Center
08:16PM 39.3022 -81.5608 295° West 393 452 21,300 -1,740 Descending Indianapolis Center
08:17PM 39.3469 -81.6817 296° West 377 434 19,600 -1,680 Descending Indianapolis Center
08:18PM 39.3903 -81.8006 295° West 369 425 17,900 -1,560 Descending Indianapolis Center
08:19PM 39.4328 -81.9161 295° West 359 413 16,500 -1,500 Descending Indianapolis Center
08:21PM 39.4733 -82.0297 295° West 350 403 14,800 -1,740 Descending Indianapolis Center
08:21PM 39.5103 -82.1386 294° West 347 399 13,400 -1,620 Descending Indianapolis Center
08:23PM 39.5575 -82.2592 297° West 335 386 11,500 -1,560 Descending Indianapolis Center
08:23PM 39.5942 -82.3689 293° West 319 367 10,100 -840 Descending Indianapolis Center
08:24PM 39.6536 -82.4536 312° West 325 374 10,000 -480 Descending Indianapolis Center
08:26PM 39.7250 -82.5444 316° Northwest 305 351 9,100 -1,320 Descending Indianapolis Center
08:27PM 39.7700 -82.6289 305° West 288 331 7,300 -1,500 Descending Indianapolis Center
08:28PM 39.8197 -82.7158 307° West 291 335 6,000 -720 Descending Indianapolis Center
08:28PM 39.8597 -82.7908 305° West 287 330 6,000  Level Indianapolis Center
08:30PM 39.8856 -82.8897 289° West 255 293 6,000 -600 Level Indianapolis Center
08:31PM 39.9025 -82.9639 287° West 241 277 4,900 -1,380 Descending Indianapolis Center
08:31PM 39.9053 -82.9742 289° West 246 283 4,600 -1,020 Descending Indianapolis Center
08:32PM 39.9225 -83.0425 288° West 223 257 3,900 -840 Descending Indianapolis Center
08:32PM 39.9278 -83.0517 307° West 244 281 3,800 -420 Descending Indianapolis Center
08:33PM 39.9822 -83.0547 358° North 223 257 3,500 -420 Descending Indianapolis Center
08:33PM 39.9886 -83.0533 North 226 260 3,400 -900 Descending Indianapolis Center
08:34PM 40.0089 -83.0008 63° Northeast 187 215 2,600 -1,020 Descending Indianapolis Center
08:34PM 40.0075 -82.9917 101° East 203 234 2,400 -780 Descending Indianapolis Center